Time,TemperatureF,DewpointF,PressureIn,WindDirection,WindDirectionDegrees,WindSpeedMPH,WindSpeedGustMPH,Humidity,HourlyPrecipIn,Conditions,Clouds,dailyrainin,SoftwareType,DateUTC
2013-03-24 00:00:00,31.8,25.0,29.72,NW,307,1.1,11.3,76,0.00,,,0.00,WUHU216PEETBRO,2013-03-24 04:00:00,
2013-03-24 00:05:00,31.6,24.7,29.72,NW,321,3.0,11.7,75,0.00,,,0.00,WUHU216PEETBRO,2013-03-24 04:05:00,
2013-03-24 00:10:00,31.9,25.0,29.72,NW,304,0.0,14.2,75,0.00,,,0.00,WUHU216PEETBRO,2013-03-24 04:10:00,
2013-03-24 00:15:00,32.3,25.2,29.72,NNW,334,3.7,14.2,75,0.00,,,0.00,WUHU216PEETBRO,2013-03-24 04:15:00,
2013-03-24 00:20:00,33.0,25.5,29.71,North,354,8.1,11.6,73,0.00,,,0.00,WUHU216PEETBRO,2013-03-24 04:20:00,
2013-03-24 00:25:00,32.9,24.9,29.71,NW,324,5.3,13.5,72,0.00,,,0.00,WUHU216PEETBRO,2013-03-24 04:25:00,
2013-03-24 00:30:00,33.0,25.3,29.71,NNW,338,5.5,13.5,73,0.00,,,0.00,WUHU216PEETBRO,2013-03-24 04:30:00,
2013-03-24 00:35:00,33.2,25.2,29.71,NNW,340,10.6,18.2,72,0.00,,,0.00,WUHU216PEETBRO,2013-03-24 04:35:00,
2013-03-24 00:40:00,33.0,25.1,29.71,North,5,2.8,18.2,72,0.00,,,0.00,WUHU216PEETBRO,2013-03-24 04:40:00,
2013-03-24 00:45:00,33.0,25.1,29.71,NNW,328,4.2,15.7,72,0.00,,,0.00,WUHU216PEETBRO,2013-03-24 04:45:00,
2013-03-24 00:50:00,33.2,25.5,29.71,North,354,10.4,13.9,73,0.00,,,0.00,WUHU216PEETBRO,2013-03-24 04:50:00,
2013-03-24 00:55:00,33.0,25.6,29.71,NNW,347,8.9,13.4,74,0.00,,,0.00,WUHU216PEETBRO,2013-03-24 04:55:00,
2013-03-24 01:00:00,33.1,25.5,29.71,NW,314,3.9,17.6,73,0.00,,,0.00,WUHU216PEETBRO,2013-03-24 05:00:00,
2013-03-24 01:05:00,33.0,25.6,29.71,North,349,3.5,17.6,74,0.00,,,0.00,WUHU216PEETBRO,2013-03-24 05:05:00,
2013-03-24 01:10:00,33.2,25.6,29.71,NW,323,5.5,10.1,73,0.00,,,0.00,WUHU216PEETBRO,2013-03-24 05:10:00,
2013-03-24 01:15:00,32.7,25.1,29.71,NW,314,9.7,16.6,73,0.00,,,0.00,WUHU216PEETBRO,2013-03-24 05:15:00,
2013-03-24 01:20:00,33.0,25.4,29.71,NNW,337,3.9,16.6,73,0.00,,,0.00,WUHU216PEETBRO,2013-03-24 05:20:00,
2013-03-24 01:25:00,33.0,25.3,29.71,NW,324,4.6,17.8,73,0.00,,,0.00,WUHU216PEETBRO,2013-03-24 05:25:00,
2013-03-24 01:30:00,32.8,25.2,29.71,NW,325,4.5,17.8,73,0.00,,,0.00,WUHU216PEETBRO,2013-03-24 05:30:00,
2013-03-24 01:35:00,33.2,25.5,29.71,North,357,8.6,16.8,73,0.00,,,0.00,WUHU216PEETBRO,2013-03-24 05:35:00,
2013-03-24 01:40:00,33.2,25.3,29.71,North,350,5.3,18.6,72,0.00,,,0.00,WUHU216PEETBRO,2013-03-24 05:40:00,
2013-03-24 01:45:00,33.2,25.4,29.71,NW,321,7.6,18.6,73,0.00,,,0.00,WUHU216PEETBRO,2013-03-24 05:45:00,
2013-03-24 01:50:00,33.1,25.4,29.71,NW,323,7.5,21.7,73,0.00,,,0.00,WUHU216PEETBRO,2013-03-24 05:50:00,
2013-03-24 01:55:00,33.2,25.6,29.71,NNW,338,10.7,21.7,73,0.00,,,0.00,WUHU216PEETBRO,2013-03-24 05:55:00,
2013-03-24 02:00:00,33.0,25.6,29.71,NNW,342,4.6,17.2,74,0.00,,,0.00,WUHU216PEETBRO,2013-03-24 06:00:00,
2013-03-24 02:05:00,33.3,26.0,29.71,NNW,347,6.9,17.2,74,0.00,,,0.00,WUHU216PEETBRO,2013-03-24 06:05:00,
2013-03-24 02:10:00,32.9,25.5,29.71,NNW,334,6.0,13.8,74,0.00,,,0.00,WUHU216PEETBRO,2013-03-24 06:10:00,
2013-03-24 02:15:00,33.1,25.9,29.71,NNW,333,7.8,13.8,74,0.00,,,0.00,WUHU216PEETBRO,2013-03-24 06:15:00,
2013-03-24 02:20:00,33.0,26.0,29.71,NW,323,3.0,13.8,75,0.00,,,0.00,WUHU216PEETBRO,2013-03-24 06:20:00,
2013-03-24 02:25:00,33.1,26.0,29.71,North,350,4.5,13.5,75,0.00,,,0.00,WUHU216PEETBRO,2013-03-24 06:25:00,
2013-03-24 02:30:00,33.7,26.7,29.71,NW,325,4.2,13.5,75,0.00,,,0.00,WUHU216PEETBRO,2013-03-24 06:30:00,
2013-03-24 02:35:00,33.1,26.0,29.71,NW,320,6.0,14.7,75,0.00,,,0.00,WUHU216PEETBRO,2013-03-24 06:35:00,
2013-03-24 02:40:00,33.6,26.4,29.71,NW,325,4.7,15.1,74,0.00,,,0.00,WUHU216PEETBRO,2013-03-24 06:40:00,
2013-03-24 02:45:00,33.0,25.5,29.71,NNW,344,7.0,15.1,74,0.00,,,0.00,WUHU216PEETBRO,2013-03-24 06:45:00,
2013-03-24 02:50:00,33.2,26.0,29.71,NW,323,7.5,18.0,75,0.00,,,0.00,WUHU216PEETBRO,2013-03-24 06:50:00,
2013-03-24 02:55:00,33.1,25.8,29.71,NNW,342,7.2,18.0,74,0.00,,,0.00,WUHU216PEETBRO,2013-03-24 06:55:00,
2013-03-24 03:00:00,33.2,26.1,29.71,NW,321,7.6,15.2,75,0.00,,,0.00,WUHU216PEETBRO,2013-03-24 07:00:00,
2013-03-24 03:05:00,33.3,26.2,29.71,NW,323,10.0,13.5,75,0.00,,,0.00,WUHU216PEETBRO,2013-03-24 07:05:00,
2013-03-24 03:10:00,33.1,26.1,29.71,NW,323,6.3,13.6,75,0.00,,,0.00,WUHU216PEETBRO,2013-03-24 07:10:00,
2013-03-24 03:15:00,33.0,26.1,29.71,NW,307,6.9,13.6,75,0.00,,,0.00,WUHU216PEETBRO,2013-03-24 07:15:00,
2013-03-24 03:20:00,33.1,26.0,29.71,North,349,5.4,12.7,75,0.00,,,0.00,WUHU216PEETBRO,2013-03-24 07:20:00,
2013-03-24 03:25:00,32.9,26.0,29.71,NNW,330,5.3,12.2,76,0.00,,,0.00,WUHU216PEETBRO,2013-03-24 07:25:00,
2013-03-24 03:30:00,32.8,26.0,29.71,NW,309,4.7,11.8,76,0.00,,,0.00,WUHU216PEETBRO,2013-03-24 07:30:00,
2013-03-24 03:35:00,32.7,26.0,29.71,NNW,338,5.5,11.8,76,0.00,,,0.00,WUHU216PEETBRO,2013-03-24 07:35:00,
2013-03-24 03:40:00,32.5,26.0,29.71,NNW,330,3.6,9.1,77,0.00,,,0.00,WUHU216PEETBRO,2013-03-24 07:40:00,
2013-03-24 03:45:00,32.2,25.9,29.71,NNW,333,6.0,8.9,77,0.00,,,0.00,WUHU216PEETBRO,2013-03-24 07:45:00,
2013-03-24 03:50:00,31.7,25.5,29.71,NW,318,3.2,8.3,78,0.00,,,0.00,WUHU216PEETBRO,2013-03-24 07:50:00,
2013-03-24 03:55:00,31.3,25.3,29.71,NW,304,3.7,9.3,78,0.00,,,0.00,WUHU216PEETBRO,2013-03-24 07:55:00,
2013-03-24 04:00:00,31.3,25.4,29.71,NW,306,0.0,9.3,78,0.00,,,0.00,WUHU216PEETBRO,2013-03-24 08:00:00,
2013-03-24 04:05:00,30.8,25.5,29.70,WNW,297,0.7,8.0,80,0.00,,,0.00,WUHU216PEETBRO,2013-03-24 08:05:00,
2013-03-24 04:10:00,31.0,25.4,29.71,NW,313,1.7,9.6,80,0.00,,,0.00,WUHU216PEETBRO,2013-03-24 08:10:00,
2013-03-24 04:15:00,30.7,25.3,29.71,NW,316,1.3,9.6,80,0.00,,,0.00,WUHU216PEETBRO,2013-03-24 08:15:00,
2013-03-24 04:20:00,30.4,25.3,29.71,WNW,285,0.0,8.9,81,0.00,,,0.00,WUHU216PEETBRO,2013-03-24 08:20:00,
2013-03-24 04:25:00,30.7,25.6,29.71,NNW,334,3.4,9.3,81,0.00,,,0.00,WUHU216PEETBRO,2013-03-24 08:25:00,
2013-03-24 04:30:00,30.7,25.8,29.71,NNW,327,4.3,12.2,82,0.00,,,0.00,WUHU216PEETBRO,2013-03-24 08:30:00,
2013-03-24 04:35:00,30.6,25.8,29.71,WNW,286,1.1,12.2,82,0.00,,,0.00,WUHU216PEETBRO,2013-03-24 08:35:00,
2013-03-24 04:40:00,31.1,26.0,29.71,NW,318,4.4,13.0,81,0.00,,,0.00,WUHU216PEETBRO,2013-03-24 08:40:00,
2013-03-24 04:45:00,31.7,26.4,29.71,NW,325,4.6,16.6,81,0.00,,,0.00,WUHU216PEETBRO,2013-03-24 08:45:00,
2013-03-24 04:50:00,31.5,26.0,29.71,NNW,330,1.9,16.6,80,0.00,,,0.00,WUHU216PEETBRO,2013-03-24 08:50:00,
2013-03-24 04:55:00,31.3,25.9,29.71,NW,325,2.1,8.1,80,0.00,,,0.00,WUHU216PEETBRO,2013-03-24 08:55:00,
2013-03-24 05:00:00,31.6,26.4,29.71,NNW,347,5.1,9.1,81,0.00,,,0.00,WUHU216PEETBRO,2013-03-24 09:00:00,
2013-03-24 05:05:00,31.2,26.0,29.71,NNW,334,5.8,9.8,81,0.00,,,0.00,WUHU216PEETBRO,2013-03-24 09:05:00,
2013-03-24 05:10:00,31.1,26.0,29.71,NNW,335,3.9,9.8,81,0.00,,,0.00,WUHU216PEETBRO,2013-03-24 09:10:00,
2013-03-24 05:15:00,31.3,26.2,29.71,NNW,345,7.8,13.0,81,0.00,,,0.00,WUHU216PEETBRO,2013-03-24 09:15:00,
2013-03-24 05:20:00,31.6,26.4,29.71,NNW,340,4.8,13.0,81,0.00,,,0.00,WUHU216PEETBRO,2013-03-24 09:20:00,
2013-03-24 05:25:00,31.3,26.1,29.71,NW,323,6.6,10.6,81,0.00,,,0.00,WUHU216PEETBRO,2013-03-24 09:25:00,
2013-03-24 05:30:00,31.8,26.6,29.71,NNW,331,5.6,10.6,81,0.00,,,0.00,WUHU216PEETBRO,2013-03-24 09:30:00,
2013-03-24 05:35:00,31.1,25.8,29.71,NW,316,2.9,10.5,81,0.00,,,0.00,WUHU216PEETBRO,2013-03-24 09:35:00,
2013-03-24 05:40:00,30.9,25.9,29.72,NW,321,2.2,9.8,82,0.00,,,0.00,WUHU216PEETBRO,2013-03-24 09:40:00,
2013-03-24 05:45:00,31.3,26.1,29.72,NW,325,1.9,14.3,81,0.00,,,0.00,WUHU216PEETBRO,2013-03-24 09:45:00,
2013-03-24 05:50:00,30.8,25.8,29.72,NW,318,2.1,14.3,82,0.00,,,0.00,WUHU216PEETBRO,2013-03-24 09:50:00,
2013-03-24 05:55:00,31.2,26.3,29.72,NW,304,4.8,9.3,82,0.00,,,0.00,WUHU216PEETBRO,2013-03-24 09:55:00,
2013-03-24 06:00:00,31.1,26.0,29.72,NW,309,2.4,9.4,81,0.00,,,0.00,WUHU216PEETBRO,2013-03-24 10:00:00,
2013-03-24 06:05:00,31.3,26.3,29.72,NW,324,7.4,10.5,81,0.00,,,0.00,WUHU216PEETBRO,2013-03-24 10:05:00,
2013-03-24 06:10:00,31.0,25.9,29.72,NW,318,2.7,10.5,81,0.00,,,0.00,WUHU216PEETBRO,2013-03-24 10:10:00,
2013-03-24 06:15:00,30.8,25.8,29.73,NNW,333,2.2,8.9,81,0.00,,,0.00,WUHU216PEETBRO,2013-03-24 10:15:00,
2013-03-24 06:20:00,30.7,25.9,29.73,NNW,342,1.9,9.8,82,0.00,,,0.00,WUHU216PEETBRO,2013-03-24 10:20:00,
2013-03-24 06:25:00,30.5,25.7,29.73,NW,313,4.7,9.8,82,0.00,,,0.00,WUHU216PEETBRO,2013-03-24 10:25:00,
2013-03-24 06:30:00,30.7,25.8,29.73,NW,325,1.5,11.1,82,0.00,,,0.00,WUHU216PEETBRO,2013-03-24 10:30:00,
2013-03-24 06:35:00,31.1,26.2,29.73,NNW,340,3.2,11.1,82,0.00,,,0.00,WUHU216PEETBRO,2013-03-24 10:35:00,
2013-03-24 06:40:00,30.8,25.9,29.74,NW,311,4.3,10.4,82,0.00,,,0.00,WUHU216PEETBRO,2013-03-24 10:40:00,
2013-03-24 06:45:00,31.3,26.5,29.74,North,351,8.6,11.1,82,0.00,,,0.00,WUHU216PEETBRO,2013-03-24 10:45:00,
2013-03-24 06:50:00,31.4,26.2,29.75,NNW,337,5.7,16.1,81,0.00,,,0.00,WUHU216PEETBRO,2013-03-24 10:50:00,
2013-03-24 06:55:00,31.2,25.9,29.75,NW,325,3.3,16.1,81,0.00,,,0.00,WUHU216PEETBRO,2013-03-24 10:55:00,
2013-03-24 07:00:00,31.3,26.0,29.75,NW,325,4.2,13.7,81,0.00,,,0.00,WUHU216PEETBRO,2013-03-24 11:00:00,
2013-03-24 07:05:00,31.5,26.3,29.75,NW,325,5.1,10.3,81,0.00,,,0.00,WUHU216PEETBRO,2013-03-24 11:05:00,
2013-03-24 07:10:00,31.3,26.2,29.76,NW,317,4.9,17.7,81,0.00,,,0.00,WUHU216PEETBRO,2013-03-24 11:10:00,
2013-03-24 07:15:00,31.7,26.4,29.76,NW,309,4.3,17.7,81,0.00,,,0.00,WUHU216PEETBRO,2013-03-24 11:15:00,
2013-03-24 07:20:00,31.5,26.1,29.77,West,261,2.2,9.6,80,0.00,,,0.00,WUHU216PEETBRO,2013-03-24 11:20:00,
2013-03-24 07:25:00,32.4,27.0,29.77,NNW,328,6.7,8.7,80,0.00,,,0.00,WUHU216PEETBRO,2013-03-24 11:25:00,
2013-03-24 07:30:00,32.6,26.8,29.77,NNW,334,6.8,11.1,79,0.00,,,0.00,WUHU216PEETBRO,2013-03-24 11:30:00,
2013-03-24 07:35:00,33.2,26.9,29.77,NNW,330,8.1,13.0,77,0.00,,,0.00,WUHU216PEETBRO,2013-03-24 11:35:00,
2013-03-24 07:40:00,33.3,26.6,29.77,NNW,331,6.8,15.7,76,0.00,,,0.00,WUHU216PEETBRO,2013-03-24 11:40:00,
2013-03-24 07:45:00,34.1,26.7,29.77,NNW,330,5.3,16.2,74,0.00,,,0.00,WUHU216PEETBRO,2013-03-24 11:45:00,
2013-03-24 07:50:00,34.3,27.2,29.77,NW,304,4.5,16.2,75,0.00,,,0.00,WUHU216PEETBRO,2013-03-24 11:50:00,
2013-03-24 07:55:00,34.3,26.7,29.77,NW,321,4.5,14.9,73,0.00,,,0.00,WUHU216PEETBRO,2013-03-24 11:55:00,
2013-03-24 08:00:00,34.9,26.8,29.77,NNW,328,7.8,14.9,72,0.00,,,0.00,WUHU216PEETBRO,2013-03-24 12:00:00,
2013-03-24 08:05:00,35.3,27.1,29.77,NW,323,4.5,19.4,72,0.00,,,0.00,WUHU216PEETBRO,2013-03-24 12:05:00,
2013-03-24 08:10:00,35.0,26.4,29.77,NW,323,8.4,19.4,71,0.00,,,0.00,WUHU216PEETBRO,2013-03-24 12:10:00,
2013-03-24 08:15:00,35.7,26.9,29.77,North,351,3.4,19.3,70,0.00,,,0.00,WUHU216PEETBRO,2013-03-24 12:15:00,
2013-03-24 08:20:00,35.7,26.8,29.77,NNW,327,4.3,16.2,70,0.00,,,0.00,WUHU216PEETBRO,2013-03-24 12:20:00,
2013-03-24 08:25:00,36.5,27.4,29.78,NNW,330,4.3,21.4,69,0.00,,,0.00,WUHU216PEETBRO,2013-03-24 12:25:00,
2013-03-24 08:30:00,36.9,27.6,29.78,North,351,13.2,21.4,69,0.00,,,0.00,WUHU216PEETBRO,2013-03-24 12:30:00,
2013-03-24 08:35:00,37.0,27.9,29.77,NNW,340,7.8,17.6,69,0.00,,,0.00,WUHU216PEETBRO,2013-03-24 12:35:00,
2013-03-24 08:40:00,37.4,27.8,29.78,North,1,6.2,18.9,68,0.00,,,0.00,WUHU216PEETBRO,2013-03-24 12:40:00,
2013-03-24 08:45:00,37.7,27.5,29.78,NNW,341,9.8,18.9,66,0.00,,,0.00,WUHU216PEETBRO,2013-03-24 12:45:00,
2013-03-24 08:50:00,37.9,28.0,29.78,North,349,8.8,16.4,67,0.00,,,0.00,WUHU216PEETBRO,2013-03-24 12:50:00,
2013-03-24 08:55:00,37.7,27.9,29.77,North,349,9.8,21.3,67,0.00,,,0.00,WUHU216PEETBRO,2013-03-24 12:55:00,
2013-03-24 09:00:00,38.0,27.8,29.77,NW,310,5.5,21.3,66,0.00,,,0.00,WUHU216PEETBRO,2013-03-24 13:00:00,
2013-03-24 09:05:00,38.0,27.9,29.77,North,349,8.3,20.6,66,0.00,,,0.00,WUHU216PEETBRO,2013-03-24 13:05:00,
2013-03-24 09:10:00,38.1,27.2,29.78,North,2,14.4,19.1,64,0.00,,,0.00,WUHU216PEETBRO,2013-03-24 13:10:00,
2013-03-24 09:15:00,38.3,27.7,29.78,North,354,10.1,19.1,65,0.00,,,0.00,WUHU216PEETBRO,2013-03-24 13:15:00,
2013-03-24 09:20:00,38.2,27.3,29.78,NNE,22,6.0,18.9,64,0.00,,,0.00,WUHU216PEETBRO,2013-03-24 13:20:00,
2013-03-24 09:25:00,38.5,28.1,29.78,NNW,331,16.2,18.9,66,0.00,,,0.00,WUHU216PEETBRO,2013-03-24 13:25:00,
2013-03-24 09:30:00,37.7,26.9,29.77,NNW,334,5.9,25.1,65,0.00,,,0.00,WUHU216PEETBRO,2013-03-24 13:30:00,
2013-03-24 09:35:00,38.8,27.9,29.77,North,359,9.8,25.1,65,0.00,,,0.00,WUHU216PEETBRO,2013-03-24 13:35:00,
2013-03-24 09:40:00,38.5,27.1,29.77,North,5,8.7,19.6,63,0.00,,,0.00,WUHU216PEETBRO,2013-03-24 13:40:00,
2013-03-24 09:45:00,38.6,27.0,29.77,NW,325,11.4,20.2,63,0.00,,,0.00,WUHU216PEETBRO,2013-03-24 13:45:00,
2013-03-24 09:50:00,38.5,27.1,29.77,North,359,6.5,21.7,63,0.00,,,0.00,WUHU216PEETBRO,2013-03-24 13:50:00,
2013-03-24 09:55:00,38.0,26.2,29.76,NNW,345,7.6,28.1,62,0.00,,,0.00,WUHU216PEETBRO,2013-03-24 13:55:00,
2013-03-24 10:00:00,38.6,26.7,29.76,North,352,17.3,28.1,62,0.00,,,0.00,WUHU216PEETBRO,2013-03-24 14:00:00,
2013-03-24 10:05:00,39.0,27.0,29.76,NW,325,9.8,27.5,62,0.00,,,0.00,WUHU216PEETBRO,2013-03-24 14:05:00,
2013-03-24 10:10:00,38.8,26.6,29.76,NW,324,7.2,22.4,61,0.00,,,0.00,WUHU216PEETBRO,2013-03-24 14:10:00,
2013-03-24 10:15:00,39.2,26.9,29.76,NNW,337,15.8,19.9,61,0.00,,,0.00,WUHU216PEETBRO,2013-03-24 14:15:00,
2013-03-24 10:20:00,39.2,26.3,29.76,North,9,14.3,19.9,59,0.00,,,0.00,WUHU216PEETBRO,2013-03-24 14:20:00,
2013-03-24 10:25:00,38.9,26.1,29.77,NNW,342,8.9,21.9,60,0.00,,,0.00,WUHU216PEETBRO,2013-03-24 14:25:00,
2013-03-24 10:30:00,39.2,26.4,29.75,NNW,345,10.7,23.6,60,0.00,,,0.00,WUHU216PEETBRO,2013-03-24 14:30:00,
2013-03-24 10:35:00,39.7,26.5,29.76,NW,324,4.4,23.6,59,0.00,,,0.00,WUHU216PEETBRO,2013-03-24 14:35:00,
2013-03-24 10:40:00,40.0,26.5,29.75,North,11,8.7,18.1,58,0.00,,,0.00,WUHU216PEETBRO,2013-03-24 14:40:00,
2013-03-24 10:45:00,39.9,26.0,29.75,North,357,5.7,18.2,57,0.00,,,0.00,WUHU216PEETBRO,2013-03-24 14:45:00,
2013-03-24 10:50:00,40.2,25.9,29.75,ENE,76,9.6,18.8,56,0.00,,,0.00,WUHU216PEETBRO,2013-03-24 14:50:00,
2013-03-24 10:55:00,40.3,26.0,29.75,North,352,13.9,18.8,56,0.00,,,0.00,WUHU216PEETBRO,2013-03-24 14:55:00,
2013-03-24 11:00:00,41.0,26.9,29.76,NNE,13,5.5,16.9,57,0.00,,,0.00,WUHU216PEETBRO,2013-03-24 15:00:00,
2013-03-24 11:05:00,40.9,27.0,29.76,NNW,341,12.0,19.8,57,0.00,,,0.00,WUHU216PEETBRO,2013-03-24 15:05:00,
2013-03-24 11:10:00,40.9,26.8,29.76,NNE,30,8.1,19.8,57,0.00,,,0.00,WUHU216PEETBRO,2013-03-24 15:10:00,
2013-03-24 11:15:00,41.7,26.9,29.75,NNW,338,9.1,16.3,55,0.00,,,0.00,WUHU216PEETBRO,2013-03-24 15:15:00,
2013-03-24 11:20:00,41.1,25.9,29.76,North,351,6.9,15.4,54,0.00,,,0.00,WUHU216PEETBRO,2013-03-24 15:20:00,
2013-03-24 11:25:00,41.2,26.3,29.77,NNE,28,5.9,15.8,55,0.00,,,0.00,WUHU216PEETBRO,2013-03-24 15:25:00,
2013-03-24 11:30:00,41.0,26.0,29.77,North,11,5.1,15.8,55,0.00,,,0.00,WUHU216PEETBRO,2013-03-24 15:30:00,
2013-03-24 11:35:00,41.4,26.5,29.77,North,349,8.5,14.7,55,0.00,,,0.00,WUHU216PEETBRO,2013-03-24 15:35:00,
2013-03-24 11:40:00,41.4,26.9,29.76,NW,323,1.3,14.7,56,0.00,,,0.00,WUHU216PEETBRO,2013-03-24 15:40:00,
2013-03-24 11:45:00,42.1,27.0,29.76,NNW,344,2.0,10.9,55,0.00,,,0.00,WUHU216PEETBRO,2013-03-24 15:45:00,
2013-03-24 11:50:00,42.4,26.7,29.77,North,349,6.0,18.1,53,0.00,,,0.00,WUHU216PEETBRO,2013-03-24 15:50:00,
2013-03-24 11:55:00,42.6,26.7,29.77,NNW,344,9.4,18.1,53,0.00,,,0.00,WUHU216PEETBRO,2013-03-24 15:55:00,
2013-03-24 12:00:00,42.8,26.5,29.76,North,4,7.8,17.7,52,0.00,,,0.00,WUHU216PEETBRO,2013-03-24 16:00:00,
2013-03-24 12:05:00,42.8,27.3,29.77,NNW,345,6.5,17.7,54,0.00,,,0.00,WUHU216PEETBRO,2013-03-24 16:05:00,
2013-03-24 12:10:00,43.3,27.7,29.77,North,352,12.3,15.7,54,0.00,,,0.00,WUHU216PEETBRO,2013-03-24 16:10:00,
2013-03-24 12:15:00,42.9,26.4,29.76,NNW,348,5.5,15.7,52,0.00,,,0.00,WUHU216PEETBRO,2013-03-24 16:15:00,
2013-03-24 12:20:00,43.0,26.6,29.76,North,351,3.2,13.6,52,0.00,,,0.00,WUHU216PEETBRO,2013-03-24 16:20:00,
2013-03-24 12:25:00,43.1,26.7,29.76,North,355,8.0,18.8,52,0.00,,,0.00,WUHU216PEETBRO,2013-03-24 16:25:00,
2013-03-24 12:30:00,43.0,26.6,29.76,NNW,341,8.3,19.8,52,0.00,,,0.00,WUHU216PEETBRO,2013-03-24 16:30:00,
2013-03-24 12:35:00,43.3,26.5,29.77,NNW,328,10.7,19.8,51,0.00,,,0.00,WUHU216PEETBRO,2013-03-24 16:35:00,
2013-03-24 12:40:00,42.9,26.2,29.77,NNW,341,9.8,16.8,52,0.00,,,0.00,WUHU216PEETBRO,2013-03-24 16:40:00,
2013-03-24 12:45:00,43.0,26.3,29.76,NW,325,10.6,20.1,52,0.00,,,0.00,WUHU216PEETBRO,2013-03-24 16:45:00,
2013-03-24 12:50:00,43.5,27.1,29.76,NNW,342,3.0,20.1,52,0.00,,,0.00,WUHU216PEETBRO,2013-03-24 16:50:00,
2013-03-24 12:55:00,43.7,26.9,29.76,North,1,1.6,17.8,51,0.00,,,0.00,WUHU216PEETBRO,2013-03-24 16:55:00,
2013-03-24 13:00:00,44.0,26.4,29.77,North,6,5.6,16.2,50,0.00,,,0.00,WUHU216PEETBRO,2013-03-24 17:00:00,
2013-03-24 13:05:00,43.5,26.7,29.77,North,6,4.0,16.2,51,0.00,,,0.00,WUHU216PEETBRO,2013-03-24 17:05:00,
2013-03-24 13:10:00,43.1,25.7,29.77,NNW,344,3.3,13.7,50,0.00,,,0.00,WUHU216PEETBRO,2013-03-24 17:10:00,
2013-03-24 13:15:00,44.3,27.7,29.76,NW,324,6.5,13.5,52,0.00,,,0.00,WUHU216PEETBRO,2013-03-24 17:15:00,
2013-03-24 13:20:00,45.7,28.0,29.75,NW,321,5.2,13.5,50,0.00,,,0.00,WUHU216PEETBRO,2013-03-24 17:20:00,
2013-03-24 13:25:00,45.4,26.7,29.75,NNW,348,8.6,16.3,48,0.00,,,0.00,WUHU216PEETBRO,2013-03-24 17:25:00,
2013-03-24 13:30:00,46.1,27.0,29.74,NE,45,8.0,16.3,47,0.00,,,0.00,WUHU216PEETBRO,2013-03-24 17:30:00,
2013-03-24 13:35:00,45.9,26.5,29.75,NNW,335,13.2,18.3,47,0.00,,,0.00,WUHU216PEETBRO,2013-03-24 17:35:00,
2013-03-24 13:40:00,46.0,27.5,29.74,NNW,345,2.4,18.3,48,0.00,,,0.00,WUHU216PEETBRO,2013-03-24 17:40:00,
2013-03-24 13:45:00,46.3,27.7,29.74,NNE,15,7.3,15.3,48,0.00,,,0.00,WUHU216PEETBRO,2013-03-24 17:45:00,
2013-03-24 13:50:00,46.1,26.0,29.75,North,8,14.3,15.1,45,0.00,,,0.00,WUHU216PEETBRO,2013-03-24 17:50:00,
2013-03-24 13:55:00,46.1,27.1,29.74,NW,318,0.0,15.1,47,0.00,,,0.00,WUHU216PEETBRO,2013-03-24 17:55:00,
2013-03-24 14:00:00,44.3,26.3,29.75,NW,320,1.6,13.9,49,0.00,,,0.00,WUHU216PEETBRO,2013-03-24 18:00:00,
2013-03-24 14:05:00,45.1,26.9,29.74,North,351,6.0,12.9,49,0.00,,,0.00,WUHU216PEETBRO,2013-03-24 18:05:00,
2013-03-24 14:10:00,44.4,26.4,29.74,NNE,19,5.3,12.9,49,0.00,,,0.00,WUHU216PEETBRO,2013-03-24 18:10:00,
2013-03-24 14:15:00,43.9,26.6,29.74,NNW,344,6.9,10.3,50,0.00,,,0.00,WUHU216PEETBRO,2013-03-24 18:15:00,
2013-03-24 14:20:00,43.8,26.4,29.74,NNW,333,1.6,12.4,50,0.00,,,0.00,WUHU216PEETBRO,2013-03-24 18:20:00,
2013-03-24 14:25:00,44.0,27.0,29.74,NNE,12,6.7,12.4,51,0.00,,,0.00,WUHU216PEETBRO,2013-03-24 18:25:00,
2013-03-24 14:30:00,46.2,27.7,29.74,NE,52,6.4,12.7,48,0.00,,,0.00,WUHU216PEETBRO,2013-03-24 18:30:00,
2013-03-24 14:35:00,46.1,27.5,29.74,NNE,15,3.5,13.7,48,0.00,,,0.00,WUHU216PEETBRO,2013-03-24 18:35:00,
2013-03-24 14:40:00,46.8,27.4,29.75,NNW,344,7.1,13.7,47,0.00,,,0.00,WUHU216PEETBRO,2013-03-24 18:40:00,
2013-03-24 14:45:00,47.0,28.0,29.75,NNW,327,5.2,13.9,48,0.00,,,0.00,WUHU216PEETBRO,2013-03-24 18:45:00,
2013-03-24 14:50:00,47.5,27.8,29.75,NNW,342,7.6,13.9,46,0.00,,,0.00,WUHU216PEETBRO,2013-03-24 18:50:00,
2013-03-24 14:55:00,45.4,26.2,29.74,North,1,8.3,16.0,47,0.00,,,0.00,WUHU216PEETBRO,2013-03-24 18:55:00,
2013-03-24 15:00:00,46.2,27.7,29.74,NNW,348,9.2,16.0,48,0.00,,,0.00,WUHU216PEETBRO,2013-03-24 19:00:00,
2013-03-24 15:05:00,46.7,27.8,29.73,NNW,327,5.5,10.0,48,0.00,,,0.00,WUHU216PEETBRO,2013-03-24 19:05:00,
2013-03-24 15:10:00,46.6,27.7,29.73,NNW,341,6.1,10.0,48,0.00,,,0.00,WUHU216PEETBRO,2013-03-24 19:10:00,
2013-03-24 15:16:00,46.3,26.8,29.73,North,11,4.2,12.2,47,0.00,,,0.00,WUHU216PEETBRO,2013-03-24 19:16:00,
2013-03-24 15:21:00,46.9,27.7,29.73,NNW,341,10.8,12.2,47,0.00,,,0.00,WUHU216PEETBRO,2013-03-24 19:21:00,
2013-03-24 15:26:00,46.7,27.0,29.73,North,352,6.5,15.0,46,0.00,,,0.00,WUHU216PEETBRO,2013-03-24 19:26:00,
2013-03-24 15:31:00,46.4,28.0,29.72,WNW,300,0.0,15.0,49,0.00,,,0.00,WUHU216PEETBRO,2013-03-24 19:31:00,
2013-03-24 15:36:00,46.1,27.2,29.73,NNW,344,5.5,12.7,48,0.00,,,0.00,WUHU216PEETBRO,2013-03-24 19:36:00,
2013-03-24 15:41:00,46.4,27.3,29.72,North,9,9.6,11.7,47,0.00,,,0.00,WUHU216PEETBRO,2013-03-24 19:41:00,
2013-03-24 15:46:00,45.7,26.7,29.72,NNW,344,5.2,13.7,47,0.00,,,0.00,WUHU216PEETBRO,2013-03-24 19:46:00,
2013-03-24 15:51:00,46.2,27.6,29.73,NNW,342,11.2,13.7,48,0.00,,,0.00,WUHU216PEETBRO,2013-03-24 19:51:00,
2013-03-24 15:56:00,45.4,27.3,29.73,NE,35,3.4,12.5,49,0.00,,,0.00,WUHU216PEETBRO,2013-03-24 19:56:00,
2013-03-24 16:01:00,45.3,27.5,29.73,North,2,9.3,12.5,50,0.00,,,0.00,WUHU216PEETBRO,2013-03-24 20:01:00,
2013-03-24 16:06:00,44.7,26.4,29.72,NW,325,3.7,13.2,49,0.00,,,0.00,WUHU216PEETBRO,2013-03-24 20:06:00,
2013-03-24 16:11:00,45.2,27.8,29.71,NE,36,2.7,13.2,50,0.00,,,0.00,WUHU216PEETBRO,2013-03-24 20:11:00,
2013-03-24 16:16:00,45.0,27.3,29.71,North,11,18.6,18.6,50,0.00,,,0.00,WUHU216PEETBRO,2013-03-24 20:16:00,
2013-03-24 16:21:00,44.0,26.1,29.72,NNE,29,4.3,18.6,49,0.00,,,0.00,WUHU216PEETBRO,2013-03-24 20:21:00,
2013-03-24 16:26:00,44.4,27.5,29.71,North,349,4.7,18.3,51,0.00,,,0.00,WUHU216PEETBRO,2013-03-24 20:26:00,
2013-03-24 16:31:00,44.3,26.7,29.72,NE,54,3.1,10.9,50,0.00,,,0.00,WUHU216PEETBRO,2013-03-24 20:31:00,
2013-03-24 16:36:00,44.3,26.6,29.71,East,80,4.2,9.9,50,0.00,,,0.00,WUHU216PEETBRO,2013-03-24 20:36:00,
2013-03-24 16:41:00,44.3,26.9,29.71,East,83,1.1,9.9,50,0.00,,,0.00,WUHU216PEETBRO,2013-03-24 20:41:00,
2013-03-24 16:46:00,44.3,26.5,29.71,North,349,0.0,15.8,49,0.00,,,0.00,WUHU216PEETBRO,2013-03-24 20:46:00,
2013-03-24 16:51:00,44.7,26.6,29.71,NW,325,0.0,15.8,49,0.00,,,0.00,WUHU216PEETBRO,2013-03-24 20:51:00,
2013-03-24 16:56:00,44.6,27.0,29.71,NNW,348,1.4,11.8,50,0.00,,,0.00,WUHU216PEETBRO,2013-03-24 20:56:00,
2013-03-24 17:01:00,44.4,26.5,29.71,NNE,21,0.0,11.8,49,0.00,,,0.00,WUHU216PEETBRO,2013-03-24 21:01:00,
2013-03-24 17:06:00,44.3,26.7,29.71,North,350,11.7,12.7,50,0.00,,,0.00,WUHU216PEETBRO,2013-03-24 21:06:00,
2013-03-24 17:11:00,44.4,26.2,29.70,NE,43,2.4,12.7,49,0.00,,,0.00,WUHU216PEETBRO,2013-03-24 21:11:00,
2013-03-24 17:16:00,44.2,26.6,29.70,North,351,2.2,11.6,50,0.00,,,0.00,WUHU216PEETBRO,2013-03-24 21:16:00,
2013-03-24 17:21:00,44.6,27.2,29.71,North,349,4.8,10.4,50,0.00,,,0.00,WUHU216PEETBRO,2013-03-24 21:21:00,
2013-03-24 17:26:00,44.2,26.5,29.70,NNW,347,0.0,10.4,50,0.00,,,0.00,WUHU216PEETBRO,2013-03-24 21:26:00,
2013-03-24 17:31:00,44.4,28.1,29.71,NNW,344,5.4,9.0,53,0.00,,,0.00,WUHU216PEETBRO,2013-03-24 21:31:00,
2013-03-24 17:36:00,44.1,27.2,29.71,NW,324,2.7,9.0,51,0.00,,,0.00,WUHU216PEETBRO,2013-03-24 21:36:00,
2013-03-24 17:41:00,43.4,26.8,29.71,North,349,3.2,6.5,52,0.00,,,0.00,WUHU216PEETBRO,2013-03-24 21:41:00,
2013-03-24 17:46:00,43.5,27.3,29.72,North,9,3.7,10.1,53,0.00,,,0.00,WUHU216PEETBRO,2013-03-24 21:46:00,
2013-03-24 17:51:00,43.9,26.3,29.73,NE,42,0.0,10.1,50,0.00,,,0.00,WUHU216PEETBRO,2013-03-24 21:51:00,
2013-03-24 17:56:00,43.7,26.2,29.72,NNE,16,1.6,11.3,50,0.00,,,0.00,WUHU216PEETBRO,2013-03-24 21:56:00,
2013-03-24 18:00:00,44.2,26.8,29.72,NNW,342,5.3,11.3,50,0.00,,,0.00,WUHU216PEETBRO,2013-03-24 22:00:00,
2013-03-24 18:05:00,43.9,27.1,29.72,North,349,5.0,8.9,51,0.00,,,0.00,WUHU216PEETBRO,2013-03-24 22:05:00,
2013-03-24 18:11:00,43.5,26.2,29.72,NNW,338,3.2,8.1,50,0.00,,,0.00,WUHU216PEETBRO,2013-03-24 22:11:00,
2013-03-24 18:15:00,44.5,27.2,29.72,North,2,0.6,8.1,51,0.00,,,0.00,WUHU216PEETBRO,2013-03-24 22:15:00,
2013-03-24 18:20:00,44.3,27.4,29.72,NNW,341,0.0,6.8,51,0.00,,,0.00,WUHU216PEETBRO,2013-03-24 22:20:00,
2013-03-24 18:26:00,44.3,27.8,29.72,NNW,333,3.9,5.3,52,0.00,,,0.00,WUHU216PEETBRO,2013-03-24 22:26:00,
2013-03-24 18:31:00,43.8,27.1,29.72,North,359,1.8,7.3,52,0.00,,,0.00,WUHU216PEETBRO,2013-03-24 22:31:00,
2013-03-24 18:36:00,43.3,26.4,29.72,North,6,1.2,8.3,51,0.00,,,0.00,WUHU216PEETBRO,2013-03-24 22:36:00,
2013-03-24 18:41:00,44.1,28.2,29.72,NNW,335,6.3,8.3,53,0.00,,,0.00,WUHU216PEETBRO,2013-03-24 22:41:00,
2013-03-24 18:46:00,43.0,27.1,29.72,WNW,299,0.0,6.7,53,0.00,,,0.00,WUHU216PEETBRO,2013-03-24 22:46:00,
2013-03-24 18:51:00,42.7,27.8,29.73,ENE,64,3.6,6.7,55,0.00,,,0.00,WUHU216PEETBRO,2013-03-24 22:51:00,
2013-03-24 18:56:00,41.6,29.0,29.73,ENE,69,6.6,11.7,60,0.00,,,0.00,WUHU216PEETBRO,2013-03-24 22:56:00,
2013-03-24 19:01:00,41.7,30.3,29.74,SSE,166,4.1,11.7,63,0.00,,,0.00,WUHU216PEETBRO,2013-03-24 23:01:00,
2013-03-24 19:06:00,40.6,30.5,29.74,South,177,8.5,15.0,67,0.00,,,0.00,WUHU216PEETBRO,2013-03-24 23:06:00,
2013-03-24 19:11:00,40.3,31.7,29.75,WSW,242,3.7,17.1,71,0.00,,,0.00,WUHU216PEETBRO,2013-03-24 23:11:00,
2013-03-24 19:16:00,39.9,32.0,29.75,SE,125,5.9,17.1,73,0.00,,,0.00,WUHU216PEETBRO,2013-03-24 23:16:00,
2013-03-24 19:21:00,39.5,31.8,29.75,South,181,0.0,15.5,74,0.00,,,0.00,WUHU216PEETBRO,2013-03-24 23:21:00,
2013-03-24 19:26:00,38.9,31.4,29.75,SSW,213,0.2,10.7,74,0.00,,,0.00,WUHU216PEETBRO,2013-03-24 23:26:00,
2013-03-24 19:31:00,38.4,31.3,29.75,NW,317,0.0,9.3,75,0.00,,,0.00,WUHU216PEETBRO,2013-03-24 23:31:00,
2013-03-24 19:36:00,38.8,31.9,29.75,South,183,1.3,4.7,76,0.00,,,0.00,WUHU216PEETBRO,2013-03-24 23:36:00,
2013-03-24 19:41:00,38.1,31.4,29.75,SE,143,1.9,4.7,77,0.00,,,0.00,WUHU216PEETBRO,2013-03-24 23:41:00,
2013-03-24 19:46:00,38.6,32.2,29.75,SE,125,0.0,4.5,78,0.00,,,0.00,WUHU216PEETBRO,2013-03-24 23:46:00,
2013-03-24 19:51:00,37.9,31.6,29.75,SE,125,0.0,3.2,78,0.00,,,0.00,WUHU216PEETBRO,2013-03-24 23:51:00,
2013-03-24 19:56:00,38.1,31.8,29.75,SE,142,1.6,4.0,78,0.00,,,0.00,WUHU216PEETBRO,2013-03-24 23:56:00,
2013-03-24 20:01:00,37.5,31.3,29.75,ESE,105,0.0,4.0,78,0.00,,,0.00,WUHU216PEETBRO,2013-03-25 00:01:00,
2013-03-24 20:06:00,37.3,31.3,29.75,ESE,105,0.0,0.9,79,0.00,,,0.00,WUHU216PEETBRO,2013-03-25 00:06:00,
2013-03-24 20:11:00,36.9,31.0,29.75,ESE,105,0.0,0.0,79,0.00,,,0.00,WUHU216PEETBRO,2013-03-25 00:11:00,
2013-03-24 20:16:00,36.9,31.4,29.75,ESE,105,0.0,0.0,80,0.00,,,0.00,WUHU216PEETBRO,2013-03-25 00:16:00,
2013-03-24 20:21:00,35.7,30.5,29.75,ESE,105,0.0,0.0,81,0.00,,,0.00,WUHU216PEETBRO,2013-03-25 00:21:00,
2013-03-24 20:26:00,35.8,30.9,29.75,NNE,15,0.0,1.7,82,0.00,,,0.00,WUHU216PEETBRO,2013-03-25 00:26:00,
2013-03-24 20:31:00,35.8,31.0,29.75,NNE,15,0.0,1.7,83,0.00,,,0.00,WUHU216PEETBRO,2013-03-25 00:31:00,
2013-03-24 20:37:00,35.7,31.2,29.75,NNE,21,0.0,0.4,83,0.00,,,0.00,WUHU216PEETBRO,2013-03-25 00:37:00,
2013-03-24 20:42:00,34.9,30.5,29.75,NNE,21,0.0,0.4,84,0.00,,,0.00,WUHU216PEETBRO,2013-03-25 00:42:00,
2013-03-24 20:47:00,34.9,30.9,29.75,NNE,23,1.1,2.9,85,0.00,,,0.00,WUHU216PEETBRO,2013-03-25 00:47:00,
2013-03-24 20:52:00,34.4,30.5,29.75,NNE,23,1.6,3.4,86,0.00,,,0.00,WUHU216PEETBRO,2013-03-25 00:52:00,
2013-03-24 20:57:00,34.9,31.2,29.75,NNE,22,0.0,3.4,86,0.00,,,0.00,WUHU216PEETBRO,2013-03-25 00:57:00,
2013-03-24 21:02:00,34.4,30.6,29.75,NNE,18,1.4,3.0,86,0.00,,,0.00,WUHU216PEETBRO,2013-03-25 01:02:00,
2013-03-24 21:07:00,34.2,30.6,29.75,North,2,0.0,2.1,87,0.00,,,0.00,WUHU216PEETBRO,2013-03-25 01:07:00,
2013-03-24 21:12:00,34.2,30.6,29.75,NNE,13,0.0,2.1,87,0.00,,,0.00,WUHU216PEETBRO,2013-03-25 01:12:00,
2013-03-24 21:17:00,34.1,30.8,29.76,NNE,16,0.0,1.4,88,0.00,,,0.00,WUHU216PEETBRO,2013-03-25 01:17:00,
2013-03-24 21:22:00,33.8,31.0,29.76,NNE,16,0.0,1.3,89,0.00,,,0.00,WUHU216PEETBRO,2013-03-25 01:22:00,
2013-03-24 21:27:00,34.3,31.4,29.76,NNE,16,0.0,0.0,89,0.00,,,0.00,WUHU216PEETBRO,2013-03-25 01:27:00,
2013-03-24 21:32:00,34.0,31.2,29.76,NNE,16,0.0,0.0,90,0.00,,,0.00,WUHU216PEETBRO,2013-03-25 01:32:00,
2013-03-24 21:37:00,33.6,30.8,29.77,NNE,16,0.0,0.0,90,0.00,,,0.00,WUHU216PEETBRO,2013-03-25 01:37:00,
2013-03-24 21:42:00,33.6,30.8,29.77,NNE,16,0.0,0.0,89,0.00,,,0.00,WUHU216PEETBRO,2013-03-25 01:42:00,
2013-03-24 21:47:00,33.4,30.9,29.77,NNE,16,0.0,0.0,91,0.00,,,0.00,WUHU216PEETBRO,2013-03-25 01:47:00,
2013-03-24 21:52:00,33.2,30.7,29.77,NNE,16,0.0,0.0,91,0.00,,,0.00,WUHU216PEETBRO,2013-03-25 01:52:00,
2013-03-24 21:57:00,33.1,30.7,29.77,NNE,16,0.0,0.0,91,0.00,,,0.00,WUHU216PEETBRO,2013-03-25 01:57:00,
2013-03-24 22:02:00,33.0,30.6,29.77,NNE,16,0.0,0.0,91,0.00,,,0.00,WUHU216PEETBRO,2013-03-25 02:02:00,
2013-03-24 22:07:00,32.7,30.3,29.77,NNE,16,0.0,0.0,91,0.00,,,0.00,WUHU216PEETBRO,2013-03-25 02:07:00,
2013-03-24 22:12:00,32.1,29.9,29.77,NNE,16,0.0,0.0,92,0.00,,,0.00,WUHU216PEETBRO,2013-03-25 02:12:00,
2013-03-24 22:17:00,31.6,29.7,29.77,NNE,16,0.0,0.0,93,0.00,,,0.00,WUHU216PEETBRO,2013-03-25 02:17:00,
2013-03-24 22:22:00,31.5,29.8,29.77,NNE,16,0.0,0.0,93,0.00,,,0.00,WUHU216PEETBRO,2013-03-25 02:22:00,
2013-03-24 22:27:00,31.5,29.8,29.77,NNE,16,0.0,0.0,94,0.00,,,0.00,WUHU216PEETBRO,2013-03-25 02:27:00,
2013-03-24 22:32:00,31.3,29.7,29.76,NNE,16,0.0,0.0,94,0.00,,,0.00,WUHU216PEETBRO,2013-03-25 02:32:00,
2013-03-24 22:37:00,30.8,29.3,29.77,NNE,16,0.0,0.0,94,0.00,,,0.00,WUHU216PEETBRO,2013-03-25 02:37:00,
2013-03-24 22:42:00,30.4,29.0,29.77,NNE,16,0.0,0.0,95,0.00,,,0.00,WUHU216PEETBRO,2013-03-25 02:42:00,
2013-03-24 22:47:00,30.4,29.1,29.77,NNE,16,0.0,0.0,95,0.00,,,0.00,WUHU216PEETBRO,2013-03-25 02:47:00,
2013-03-24 22:52:00,30.1,28.8,29.76,NNE,16,0.0,0.0,95,0.00,,,0.00,WUHU216PEETBRO,2013-03-25 02:52:00,
2013-03-24 22:57:00,29.7,28.5,29.76,NNE,16,0.0,0.0,96,0.00,,,0.00,WUHU216PEETBRO,2013-03-25 02:57:00,
2013-03-24 23:02:00,29.4,28.3,29.76,NNE,16,0.0,0.0,96,0.00,,,0.00,WUHU216PEETBRO,2013-03-25 03:02:00,
2013-03-24 23:07:00,29.1,28.1,29.76,NNE,16,0.0,0.0,96,0.00,,,0.00,WUHU216PEETBRO,2013-03-25 03:07:00,
2013-03-24 23:13:00,29.1,28.1,29.75,NNE,16,0.0,0.0,96,0.00,,,0.00,WUHU216PEETBRO,2013-03-25 03:13:00,
2013-03-24 23:18:00,29.3,28.4,29.75,NNE,16,0.0,0.0,96,0.00,,,0.00,WUHU216PEETBRO,2013-03-25 03:18:00,
2013-03-24 23:23:00,29.1,28.2,29.75,NNE,16,0.0,0.0,97,0.00,,,0.00,WUHU216PEETBRO,2013-03-25 03:23:00,
2013-03-24 23:28:00,29.1,28.2,29.75,NNE,16,0.0,0.0,97,0.00,,,0.00,WUHU216PEETBRO,2013-03-25 03:28:00,
2013-03-24 23:33:00,29.1,28.2,29.75,NNE,16,0.0,0.0,97,0.00,,,0.00,WUHU216PEETBRO,2013-03-25 03:33:00,
2013-03-24 23:38:00,29.2,28.3,29.75,NNE,16,0.0,0.0,97,0.00,,,0.00,WUHU216PEETBRO,2013-03-25 03:38:00,
2013-03-24 23:43:00,29.2,28.3,29.75,NNE,16,0.0,0.0,97,0.00,,,0.00,WUHU216PEETBRO,2013-03-25 03:43:00,
2013-03-24 23:48:00,28.7,27.8,29.75,NNE,16,0.0,0.0,97,0.00,,,0.00,WUHU216PEETBRO,2013-03-25 03:48:00,
2013-03-24 23:53:00,28.3,27.5,29.75,NNE,16,0.0,0.0,97,0.00,,,0.00,WUHU216PEETBRO,2013-03-25 03:53:00,
2013-03-24 23:58:00,28.3,27.5,29.75,NNE,16,0.0,0.0,97,0.00,,,0.00,WUHU216PEETBRO,2013-03-25 03:58:00,